< < Back
Terminal Aerodrome Forecast


Current Version              Previous Versions:   1  2  3  4  5  6  7  8  9  

Terminal Aerodrome Forecast

136
FTUS44 KBMX 270400 AAA
TAFTCL
TAF AMD
KTCL 270446Z 2705/2724 33007KT P6SM SCT035
     FM270700 34007KT P6SM BKN035
     FM271000 35010KT P6SM OVC015
     FM271800 35008KT P6SM BKN025=

Latest METAR

723
SAUS70 KWBC 271100 RRH
MTRTCL
METAR KTCL 271053Z AUTO 35006KT 7SM OVC026 00/M03 A3040 RMK AO2 SLP294
T00001028


USA.gov is the U.S. government's official web portal to all federal, state and local government web resources and services.